Impacts METAR Board
IDs:

KGPT - Gulfport-Biloxi Intl, MS, US

Updated at: 0600 UTC 24 Jan 2019
Potential Impact None Slight Moderate High
Time 23/18Z 23/19Z 23/20Z 23/21Z 23/22Z 23/23Z 24/00Z 24/01Z 24/02Z 24/03Z 24/04Z 24/05Z 24/06Z
Temp65 67 65 58 57 57 56 56 56 48 47 44 42
Dewpt64 66 64 56 54 55 54 55 54 45 44 42 39
Altim29.83 29.80 29.81 29.83 29.85 29.84 29.84 29.83 29.87 29.92 29.95 29.92 29.96
VIS3 1.75 3 1.5 10 10 8 9 10 10 10 10 10
CIG5 7 5 10 90 45 55 50 7 7 7 7 7
CoverOVCOVCOVCOVCOVCOVCBKNBKNOVCOVCOVCOVCOVC
FltCatIFRIFRIFRIFRVFRVFRVFRVFRIFRIFRIFRIFRIFR
WXBRRA BR-RA BRRA BR-RA---RA-RA----------
WDir1701802203103203602700280300300300300
WSpd14 18 10 14 13 6 5 0 7 17 9 12 13
WGst21 30 19 19 19 -- -- -- -- 30 -- -- --
Raw hourly METARs
KGPT 231800Z 17014G21KT 3SM BR BKN005 BKN013 OVC044 18/18 A2983 RMK AO2 T01830178
KGPT 231904Z 18018G30KT 1 3/4SM RA BR SCT004 BKN007 OVC012 19/19 A2980 RMK AO2 PK WND 17030/1902 CIG 005V009 P0007 T01940189
KGPT 231953Z 22010G19KT 3SM -RA BR BKN005 OVC009 18/18 A2981 RMK AO2 PK WND 17030/1902 WSHFT 1854 SLP092 P0022 T01830178
KGPT 232053Z 31014G19KT 1 1/2SM RA BR BKN010 BKN027 OVC035 14/13 A2983 RMK AO2 WSHFT 2003 VIS 1V2 1/2 SLP102 P0053 60086 T01440133 55000
KGPT 232200Z 32013G19KT 10SM -RA SCT007 OVC090 14/12 A2985 RMK AO2 P0000 T01390122
KGPT 232253Z COR 36006KT 10SM FEW009 BKN045 OVC060 14/13 A2984 RMK AO2 RAE53 SLP103 P0006 T01390128
KGPT 232353Z 27005KT 8SM -RA FEW010 BKN055 13/12 A2984 RMK AO2 RAB53 SLP105 P0000 60103 T01330122 10194 20133 53003
KGPT 240053Z 00000KT 9SM -RA FEW010 BKN050 13/13 A2983 RMK AO2 SLP101 P0004 T01330128
KGPT 240203Z 28007KT 10SM BKN007 BKN013 OVC025 13/12 A2987 RMK AO2 CIG 004V011 T01330122
KGPT 240253Z 30017G30KT 10SM BKN007 BKN011 OVC021 09/07 A2992 RMK AO2 PK WND 31030/0250 RAB20E43 PRESRR SLP130 P0000 60004 T00890072 53025
KGPT 240353Z 30009KT 10SM BKN007 BKN011 OVC021 08/07 A2995 RMK AO2 PRESRR SLP140 T00830067
KGPT 240453Z 30012KT 10SM OVC007 07/06 A2992 RMK AO2 SLP131 T00670056
KGPT 240553Z AUTO 30013KT 10SM OVC007 06/04 A2996 RMK AO2 SLP146 60004 T00560039 10133 20056 401940056 53016



Page loaded:  06:06 UTC  |   10:06 PM Pacific  |   11:06 PM Mountain  |   12:06 AM Central  |   01:06 AM Eastern

 

ADVISORIES

FORECASTS

FORECASTS

OBSERVATIONS

USER TOOLS

ABOUT US